This demonstration page uses our WeatherBlox Daily Observations layout. Learn more.

39.29038, -76.61219

Hourly Observations for November 12, 2019

Temp ( °F °C ) Dew Point ( °F °C ) Humidity (%) Winds ( mph kmh ) Pressure ( in mb ) Visibility ( mi km ) Precip ( " mm )
12:54 am 00:54 undefined 60 15.6 40 4.4 47 47 undefined N/A 29.76 1008 N/A 0 0
1:54 am 01:54 undefined 60 15.6 40 4.4 47 47 undefined N/A 29.75 1007 N/A 0 0
2:54 am 02:54 undefined 59 15 41 5 51 51 undefined N/A 29.74 1007 N/A 0 0
3:54 am 03:54 undefined 58 14.4 43 6.1 58 58 undefined N/A 29.75 1007 N/A 0 0
4:54 am 04:54 undefined 55 12.8 47 8.3 74 74 undefined N/A 29.77 1008 N/A 0 0
5:54 am 05:54 undefined 53 11.7 48 8.9 83 83 undefined N/A 29.79 1009 N/A 0.02 0.508
6:54 am 06:54 undefined 52 11.1 47 8.3 83 83 undefined N/A 29.83 1010 N/A 0.03 0.762
7:54 am 07:54 undefined 49 9.4 39 3.9 69 69 undefined N/A 29.87 1012 N/A 0 0
8:54 am 08:54 undefined 46 7.8 34 1.1 63 63 undefined N/A 29.91 1013 N/A 0.01 0.254
9:54 am 09:54 undefined 44 6.7 32 0 63 63 undefined N/A 29.96 1014 N/A 0 0
10:54 am 10:54 undefined 41 5 31 -0.6 67 67 undefined N/A 30 1016 N/A 0 0
11:54 am 11:54 undefined 42 5.6 23 -5 47 47 undefined N/A 30 1016 N/A 0 0
12:54 pm 12:54 undefined 41 5 18 -7.8 39 39 undefined N/A 29.99 1016 N/A 0 0
1:54 pm 13:54 undefined 41 5 18 -7.8 39 39 undefined N/A 30 1016 N/A 0 0
2:54 pm 14:54 undefined 40 4.4 17 -8.3 40 40 undefined N/A 30.01 1016 N/A 0 0
3:54 pm 15:54 undefined 41 5 17 -8.3 38 38 undefined N/A 30.03 1017 N/A 0 0
4:54 pm 16:54 undefined 40 4.4 19 -7.2 43 43 undefined N/A 30.05 1018 N/A 0 0
5:54 pm 17:54 undefined 38 3.3 17 -8.3 43 43 undefined N/A 30.1 1019 N/A 0 0
6:54 pm 18:54 undefined 37 2.8 21 -6.1 52 52 undefined N/A 30.13 1020 N/A 0 0
7:54 pm 19:54 undefined 36 2.2 18 -7.8 48 48 undefined N/A 30.17 1022 N/A 0 0
8:54 pm 20:54 undefined 34 1.1 11 -11.7 38 38 undefined N/A 30.2 1023 N/A 0 0
9:54 pm 21:54 undefined 33 0.6 10 -12.2 38 38 undefined N/A 30.23 1024 N/A 0 0
10:54 pm 22:54 undefined 32 0 7 -13.9 35 35 undefined N/A 30.24 1024 N/A 0 0
11:54 pm 23:54 undefined 31 -0.6 2 -16.7 29 29 undefined N/A 30.26 1025 N/A 0 0

Powered by AerisWeather